Time;durP1;ratioP1;P1;durP2;ratioP2;P2;SDS_P1;SDS_P2;PMS_P1;PMS_P2;Temp;Humidity;BMP_temperature;BMP_pressure;BME280_temperature;BME280_humidity;BME280_pressure;Samples;Min_cycle;Max_cycle;Signal;HPM_P1;HPM_P2
2022/12/11 00:00:26;;;;;;;60.73;24.25;;;;;;;-0.94;92.87;99388.08;1704823;84;25470;-64
2022/12/11 00:02:55;;;;;;;60.58;22.50;;;;;;;-0.92;92.95;99392.59;1704810;84;25765;-64
2022/12/11 00:05:22;;;;;;;60.90;22.27;;;;;;;-0.94;93.00;99381.44;1704820;84;25567;-65
2022/12/11 00:07:51;;;;;;;64.58;21.40;;;;;;;-0.91;93.04;99389.44;1704979;84;25426;-65
2022/12/11 00:10:19;;;;;;;57.20;21.87;;;;;;;-0.92;93.00;99388.62;1704871;84;25664;-64
2022/12/11 00:12:45;;;;;;;56.45;22.67;;;;;;;-0.91;93.02;99382.80;1704976;84;25645;-64
2022/12/11 00:15:11;;;;;;;53.35;22.75;;;;;;;-0.92;93.04;99383.30;1704993;84;29507;-64
2022/12/11 00:17:38;;;;;;;58.87;21.27;;;;;;;-0.92;93.03;99383.30;1704852;83;25639;-64
2022/12/11 00:20:08;;;;;;;58.13;21.45;;;;;;;-0.91;92.96;99392.88;1704909;84;25698;-64
2022/12/11 00:22:37;;;;;;;48.35;19.17;;;;;;;-0.93;92.92;99397.66;1704978;83;25641;-64
2022/12/11 00:25:07;;;;;;;41.67;18.00;;;;;;;-0.96;92.86;99389.66;1705243;84;25464;-64
2022/12/11 00:27:34;;;;;;;45.03;17.23;;;;;;;-0.97;92.73;99392.56;1693816;82;27564;-65
2022/12/11 00:30:00;;;;;;;42.67;18.67;;;;;;;-0.98;92.67;99385.13;1697639;83;25601;-64
2022/12/11 00:32:28;;;;;;;48.17;19.32;;;;;;;-0.99;92.73;99388.04;1723107;83;25566;-64
2022/12/11 00:34:54;;;;;;;44.33;18.95;;;;;;;-0.99;92.76;99393.35;1723049;83;25731;-64
2022/12/11 00:37:20;;;;;;;45.00;18.15;;;;;;;-0.98;92.86;99389.66;1723057;83;25583;-64
2022/12/11 00:39:49;;;;;;;50.63;18.70;;;;;;;-0.99;92.89;99387.53;1723098;83;27335;-64
2022/12/11 00:42:15;;;;;;;41.45;14.18;;;;;;;-0.99;92.93;99384.88;1723160;83;25653;-64
2022/12/11 00:44:41;;;;;;;59.90;21.83;;;;;;;-0.99;93.02;99383.55;1723080;83;25601;-64
2022/12/11 00:47:07;;;;;;;61.30;21.75;;;;;;;-0.98;93.06;99382.48;1723039;83;34900;-63
2022/12/11 00:49:33;;;;;;;60.83;21.55;;;;;;;-1.00;92.89;99379.28;1723120;83;25654;-63
2022/12/11 00:51:59;;;;;;;65.85;22.25;;;;;;;-1.01;92.84;99381.66;1723029;83;27366;-63
2022/12/11 00:54:25;;;;;;;63.78;22.65;;;;;;;-1.01;92.84;99376.87;1722943;83;25583;-63
2022/12/11 00:56:51;;;;;;;70.62;23.00;;;;;;;-1.02;92.81;99379.25;1723017;83;25505;-63
2022/12/11 00:59:18;;;;;;;68.52;22.65;;;;;;;-1.03;92.75;99372.36;1691304;83;25930;-63
2022/12/11 01:01:44;;;;;;;63.68;21.68;;;;;;;-1.05;92.75;99373.94;1723109;83;25395;-63
2022/12/11 01:04:10;;;;;;;61.15;23.80;;;;;;;-1.05;92.85;99377.92;1723017;82;27391;-63
2022/12/11 01:06:36;;;;;;;67.27;22.13;;;;;;;-1.07;92.85;99373.91;1722990;83;25619;-63
2022/12/11 01:11:48;;;;;;;59.55;19.25;;;;;;;-1.13;92.74;99377.06;1723073;83;25589;-63
2022/12/11 01:14:14;;;;;;;68.30;23.07;;;;;;;-1.13;92.92;99380.50;1723104;83;25407;-63
2022/12/11 01:16:40;;;;;;;63.70;23.27;;;;;;;-1.15;92.91;99386.59;1722923;83;27324;-63
2022/12/11 01:19:06;;;;;;;70.50;22.48;;;;;;;-1.17;92.84;99385.27;1723047;82;25605;-63
2022/12/11 01:21:32;;;;;;;63.90;21.65;;;;;;;-1.18;92.97;99381.00;1723012;83;25577;-63
2022/12/11 01:24:01;;;;;;;58.68;21.10;;;;;;;-1.19;93.04;99388.17;1723023;81;25539;-63
2022/12/11 01:26:29;;;;;;;63.75;21.85;;;;;;;-1.21;93.10;99381.50;1723237;83;25657;-63
2022/12/11 01:28:55;;;;;;;61.20;21.65;;;;;;;-1.21;93.13;99381.50;1708267;82;27324;-63
2022/12/11 01:31:22;;;;;;;68.85;22.55;;;;;;;-1.23;93.19;99371.14;1704772;83;25579;-63
2022/12/11 01:33:48;;;;;;;72.90;23.00;;;;;;;-1.22;93.24;99368.77;1686216;84;25646;-64
2022/12/11 01:36:20;;;;;;;68.35;22.87;;;;;;;-1.24;93.29;99357.61;1704810;84;25764;-64
2022/12/11 01:38:49;;;;;;;66.28;20.92;;;;;;;-1.25;93.12;99350.69;1700466;84;25641;-65
2022/12/11 01:41:19;;;;;;;59.98;20.35;;;;;;;-1.26;93.19;99347.78;1705059;84;29554;-65
2022/12/11 01:44:09;;;;;;;54.77;20.00;;;;;;;-1.27;93.22;99338.75;1702117;84;25604;-64
2022/12/11 01:46:37;;;;;;;62.88;21.35;;;;;;;-1.28;93.11;99341.12;1649964;86;25668;-63
2022/12/11 01:49:11;;;;;;;68.90;23.85;;;;;;;-1.34;93.13;99331.80;1642114;87;25755;-64
2022/12/11 01:51:43;;;;;;;54.45;20.08;;;;;;;-1.34;93.13;99331.80;1642127;87;25703;-64
2022/12/11 01:54:12;;;;;;;62.93;23.07;;;;;;;-1.34;93.20;99337.63;1642076;87;27462;-65
2022/12/11 01:56:42;;;;;;;64.97;22.50;;;;;;;-1.36;93.31;99335.23;1641903;87;25939;-64
2022/12/11 01:59:14;;;;;;;63.55;20.30;;;;;;;-1.38;93.34;99332.55;1642037;87;25665;-64
2022/12/11 02:01:46;;;;;;;54.70;20.43;;;;;;;-1.37;93.44;99324.33;1642018;87;25700;-65
2022/12/11 02:04:15;;;;;;;58.23;20.77;;;;;;;-1.38;93.47;99321.93;1642045;87;25645;-64
2022/12/11 02:06:47;;;;;;;49.80;19.75;;;;;;;-1.40;93.37;99319.53;1642134;87;27327;-64
2022/12/11 02:09:18;;;;;;;59.58;19.02;;;;;;;-1.41;93.46;99316.63;1642043;87;25690;-65
2022/12/11 02:12:06;;;;;;;56.92;18.70;;;;;;;-1.44;93.41;99314.47;1643076;86;25680;-64
2022/12/11 02:15:03;;;;;;;53.70;18.00;;;;;;;-1.44;93.42;99314.47;1642098;87;25707;-64
2022/12/11 02:17:53;;;;;;;54.98;18.27;;;;;;;-1.46;93.44;99307.30;1642024;87;25653;-64
2022/12/11 02:20:45;;;;;;;43.52;16.23;;;;;;;-1.48;93.37;99305.43;1642174;87;28201;-65
2022/12/11 02:23:41;;;;;;;47.60;17.07;;;;;;;-1.51;93.30;99296.65;1648727;84;25598;-64
2022/12/11 02:26:37;;;;;;;54.70;18.62;;;;;;;-1.51;93.31;99295.32;1700585;84;25474;-65
2022/12/11 02:29:09;;;;;;;53.52;16.77;;;;;;;-1.52;93.39;99291.05;1699848;82;27808;-64
2022/12/11 02:31:52;;;;;;;56.28;18.52;;;;;;;-1.55;93.41;99293.70;1704594;83;25403;-64
2022/12/11 02:34:33;;;;;;;51.13;17.92;;;;;;;-1.56;93.37;99295.28;1704902;84;29493;-64
2022/12/11 02:37:05;;;;;;;45.05;17.27;;;;;;;-1.58;93.32;99294.74;1687675;84;27245;-64
2022/12/11 02:39:37;;;;;;;55.67;18.95;;;;;;;-1.60;93.25;99295.50;1700394;84;25597;-64
2022/12/11 02:42:06;;;;;;;53.40;18.77;;;;;;;-1.63;93.22;99292.05;1701300;84;25624;-64
2022/12/11 02:44:36;;;;;;;53.98;19.02;;;;;;;-1.63;93.35;99288.07;1702424;84;31000;-63
2022/12/11 02:47:07;;;;;;;48.08;17.77;;;;;;;-1.65;93.31;99286.99;1704803;84;27408;-64
2022/12/11 02:49:39;;;;;;;53.42;18.32;;;;;;;-1.66;93.32;99287.24;1704781;84;25725;-64
2022/12/11 02:52:10;;;;;;;52.43;17.73;;;;;;;-1.67;93.29;99293.59;1701964;84;25606;-64
2022/12/11 02:54:39;;;;;;;43.40;17.67;;;;;;;-1.71;93.13;99288.78;1704852;84;25661;-63
2022/12/11 02:57:17;;;;;;;46.98;16.57;;;;;;;-1.72;93.13;99289.03;1704941;84;25546;-63
2022/12/11 02:59:47;;;;;;;48.50;17.17;;;;;;;-1.73;93.11;99290.10;1642715;87;27523;-64
2022/12/11 03:02:17;;;;;;;50.67;17.55;;;;;;;-1.74;93.08;99284.52;1642625;87;25478;-64
2022/12/11 03:04:49;;;;;;;48.63;16.52;;;;;;;-1.74;93.07;99284.01;1642755;87;25624;-64
2022/12/11 03:07:22;;;;;;;46.53;15.90;;;;;;;-1.75;92.96;99291.67;1642679;87;25626;-64
2022/12/11 03:09:51;;;;;;;44.53;17.75;;;;;;;-1.76;93.08;99282.64;1642316;87;25479;-64
2022/12/11 03:12:26;;;;;;;53.17;18.65;;;;;;;-1.77;92.92;99287.16;1642838;87;33465;-64
2022/12/11 03:14:54;;;;;;;49.50;16.02;;;;;;;-1.78;92.95;99283.43;1642499;87;25544;-65
2022/12/11 03:17:26;;;;;;;51.45;16.82;;;;;;;-1.79;92.90;99284.47;1642803;87;25643;-65
2022/12/11 03:20:13;;;;;;;40.80;15.60;;;;;;;-1.79;92.87;99282.61;1642638;87;25630;-65
2022/12/11 03:23:00;;;;;;;47.80;16.75;;;;;;;-1.81;92.72;99282.60;1642740;87;25624;-65
2022/12/11 03:25:48;;;;;;;45.83;16.87;;;;;;;-1.82;92.71;99288.44;1612909;87;28127;-65
2022/12/11 03:28:35;;;;;;;41.80;15.28;;;;;;;-1.85;92.66;99290.26;1649999;86;27225;-65
2022/12/11 03:31:06;;;;;;;44.18;15.03;;;;;;;-1.87;92.59;99288.39;1661776;86;25651;-65
2022/12/11 03:33:40;;;;;;;40.35;16.55;;;;;;;-1.86;92.67;99296.60;1654995;86;25890;-65
2022/12/11 03:36:13;;;;;;;52.60;17.98;;;;;;;-1.86;92.67;99298.46;1666191;83;25514;-67
2022/12/11 03:38:51;;;;;;;47.83;17.42;;;;;;;-1.88;92.65;99292.87;1721450;82;27234;-66
2022/12/11 03:41:22;;;;;;;48.10;18.27;;;;;;;-1.88;92.59;99296.85;1720478;83;25775;-66
2022/12/11 03:43:54;;;;;;;49.03;18.32;;;;;;;-1.89;92.58;99291.80;1720619;83;25460;-65
2022/12/11 03:46:26;;;;;;;50.33;16.73;;;;;;;-1.91;92.57;99298.70;1720555;83;25576;-65
2022/12/11 03:48:58;;;;;;;50.98;18.52;;;;;;;-1.90;92.58;99295.52;1719472;83;25728;-63
2022/12/11 03:51:29;;;;;;;57.05;18.92;;;;;;;-1.90;92.57;99292.86;1719196;83;27335;-63
2022/12/11 03:53:57;;;;;;;53.92;18.77;;;;;;;-1.93;92.44;99298.13;1721277;83;25927;-65
2022/12/11 03:56:29;;;;;;;53.02;17.52;;;;;;;-1.93;92.43;99297.34;1721442;83;25594;-65
2022/12/11 03:58:55;;;;;;;49.48;18.37;;;;;;;-1.94;92.48;99292.57;1746090;81;25479;-65
2022/12/11 04:01:21;;;;;;;58.00;19.05;;;;;;;-1.95;92.35;99295.47;1721364;83;25407;-64
2022/12/11 04:03:48;;;;;;;49.93;18.35;;;;;;;-1.98;92.35;99288.02;1721254;82;27332;-64
2022/12/11 04:06:14;;;;;;;56.33;19.17;;;;;;;-2.00;92.22;99276.33;1720793;83;25441;-64
2022/12/11 04:08:40;;;;;;;46.68;17.57;;;;;;;-2.02;92.11;99283.73;1720536;82;25715;-65
2022/12/11 04:15:00;;;;;;;52.60;18.87;;;;;;;-2.05;92.36;99273.63;1720672;83;25400;-64
2022/12/11 04:16:19;;;;;;;54.53;18.48;;;;;;;-2.05;92.38;99265.69;1723836;82;27324;-64
2022/12/11 04:24:15;;;;;;;52.83;19.75;;;;;;;-2.11;92.31;99260.05;1720514;83;25649;-64
2022/12/11 04:26:45;;;;;;;53.08;19.20;;;;;;;-2.11;92.39;99263.52;1720504;81;25600;-64
2022/12/11 04:29:14;;;;;;;50.50;17.87;;;;;;;-2.11;92.33;99254.25;1697308;83;28902;-64
2022/12/11 04:31:40;;;;;;;47.50;17.23;;;;;;;-2.12;92.33;99253.95;1715743;83;27172;-64
2022/12/11 04:34:08;;;;;;;46.75;17.95;;;;;;;-2.12;92.25;99255.81;1715605;83;25398;-64
2022/12/11 04:36:34;;;;;;;49.10;16.87;;;;;;;-2.16;92.12;99254.70;1715521;83;25623;-65
2022/12/11 04:39:06;;;;;;;44.77;17.90;;;;;;;-2.16;92.14;99254.70;1715684;83;25474;-65
2022/12/11 04:41:37;;;;;;;49.67;17.65;;;;;;;-2.19;92.10;99250.72;1715655;83;28094;-65
2022/12/11 04:44:06;;;;;;;51.95;18.15;;;;;;;-2.20;92.12;99255.73;1715559;83;25478;-65
2022/12/11 04:46:34;;;;;;;;;;;;;;;-2.21;92.12;99251.50;1718228;83;25612;-66
2022/12/11 04:49:01;;;;;;;49.80;17.50;;;;;;;-2.20;92.23;99261.03;1715670;83;27800;-65
2022/12/11 04:51:29;;;;;;;46.65;18.10;;;;;;;-2.20;92.30;99257.05;1715617;83;25536;-66
2022/12/11 04:53:59;;;;;;;52.93;20.47;;;;;;;-2.20;92.27;99256.27;1715893;82;27332;-65
2022/12/11 04:56:25;;;;;;;56.63;20.52;;;;;;;-2.20;92.35;99257.59;1715518;83;25463;-65
2022/12/11 04:58:51;;;;;;;56.27;20.27;;;;;;;-2.19;92.45;99253.90;1715620;83;25442;-65
2022/12/11 05:01:21;;;;;;;50.03;20.02;;;;;;;-2.17;92.49;99249.14;1715518;83;25697;-65
2022/12/11 05:03:49;;;;;;;55.78;20.15;;;;;;;-2.17;92.46;99254.44;1711022;83;25547;-65
2022/12/11 05:06:16;;;;;;;48.00;18.00;;;;;;;-2.16;92.50;99249.41;1714532;83;27329;-65
2022/12/11 05:08:44;;;;;;;49.67;18.77;;;;;;;-2.15;92.49;99237.77;1715487;82;25645;-64
2022/12/11 05:11:14;;;;;;;49.03;19.55;;;;;;;-2.14;92.58;99227.45;1715747;83;25565;-65
2022/12/11 05:13:45;;;;;;;49.10;18.12;;;;;;;-2.13;92.56;99219.25;1715638;83;25697;-64
2022/12/11 05:16:17;;;;;;;48.63;17.17;;;;;;;-2.13;92.56;99211.31;1715781;83;28635;-65
2022/12/11 05:18:46;;;;;;;49.27;19.67;;;;;;;-2.13;92.58;99202.03;1710285;83;27446;-65
2022/12/11 05:21:16;;;;;;;47.00;18.05;;;;;;;-2.12;92.61;99206.80;1715659;83;27184;-65
2022/12/11 05:23:44;;;;;;;44.95;18.25;;;;;;;-2.12;92.38;99204.94;1715601;83;25544;-65
2022/12/11 05:26:15;;;;;;;44.23;17.40;;;;;;;-2.13;92.30;99194.59;1715591;83;25653;-65
2022/12/11 05:28:45;;;;;;;50.00;17.70;;;;;;;-2.15;92.17;99194.05;1716443;83;25465;-65
2022/12/11 05:31:16;;;;;;;50.95;18.35;;;;;;;-2.17;92.18;99192.18;1720653;83;29543;-65
2022/12/11 05:33:45;;;;;;;49.60;17.55;;;;;;;-2.18;92.11;99188.73;1720461;83;25525;-64
2022/12/11 05:36:20;;;;;;;49.60;18.10;;;;;;;-2.19;92.12;99187.66;1720665;83;25399;-64
2022/12/11 05:38:49;;;;;;;49.50;19.00;;;;;;;-2.21;92.15;99179.97;1690467;83;25763;-64
2022/12/11 05:41:20;;;;;;;33.57;12.63;;;;;;;-2.20;92.19;99182.08;1722678;83;25607;-64
2022/12/11 05:43:50;;;;;;;42.53;17.40;;;;;;;-2.22;92.11;99180.21;1720538;83;27375;-64
2022/12/11 05:46:27;;;;;;;60.08;19.00;;;;;;;-2.21;92.20;99172.52;1699845;83;25438;-65
2022/12/11 05:48:58;;;;;;;46.18;16.80;;;;;;;-2.23;92.18;99178.10;1720634;83;25467;-64
2022/12/11 05:51:28;;;;;;;50.20;19.45;;;;;;;-2.24;92.09;99168.54;1720488;83;25563;-65
2022/12/11 05:53:57;;;;;;;53.13;19.92;;;;;;;-2.26;92.04;99162.17;1720649;83;25444;-65
2022/12/11 05:56:34;;;;;;;55.03;18.75;;;;;;;-2.27;92.01;99165.06;1720632;83;27326;-65
2022/12/11 05:59:04;;;;;;;51.73;18.65;;;;;;;-2.27;91.97;99165.06;1699771;83;25575;-65
2022/12/11 06:01:57;;;;;;;48.15;18.55;;;;;;;-2.29;91.96;99164.52;1720456;83;25423;-64
2022/12/11 06:04:23;;;;;;;50.30;18.67;;;;;;;-2.29;91.95;99168.50;1756848;81;25643;-63
2022/12/11 06:06:49;;;;;;;43.55;17.40;;;;;;;-2.33;91.88;99160.26;1756883;81;25506;-64
2022/12/11 06:09:17;;;;;;;45.73;17.92;;;;;;;-2.34;91.80;99166.59;1756861;80;27386;-64
2022/12/11 06:11:43;;;;;;;38.48;17.05;;;;;;;-2.33;91.81;99170.06;1756765;81;25680;-65
2022/12/11 06:14:13;;;;;;;42.23;15.70;;;;;;;-2.36;91.71;99168.70;1756880;81;25711;-64
2022/12/11 06:16:39;;;;;;;44.40;17.48;;;;;;;-2.35;91.69;99175.61;1756738;81;25857;-63
2022/12/11 06:19:09;;;;;;;48.75;18.20;;;;;;;-2.38;91.70;99167.34;1726018;81;25652;-64
2022/12/11 06:21:36;;;;;;;61.28;22.50;;;;;;;-2.36;91.79;99174.53;1755896;81;28331;-64
2022/12/11 06:24:06;;;;;;;53.10;22.90;;;;;;;-2.35;91.74;99176.11;1756721;81;25638;-64
2022/12/11 06:26:32;;;;;;;52.98;21.48;;;;;;;-2.38;91.54;99180.08;1756973;81;25635;-65
2022/12/11 06:28:59;;;;;;;62.70;21.97;;;;;;;-2.38;91.44;99183.23;1753618;81;25623;-65
2022/12/11 06:31:27;;;;;;;60.60;22.25;;;;;;;-2.40;91.37;99180.03;1751868;81;25440;-65
2022/12/11 06:33:55;;;;;;;55.48;23.00;;;;;;;-2.40;91.30;99180.03;1752028;81;27410;-68
2022/12/11 12:35:17;;;;;;;30.57;12.63;;;;;;;-3.69;94.27;98840.76;1820691;77;32091;-64
2022/12/11 12:38:08;;;;;;;30.75;13.90;;;;;;;-3.76;94.26;98841.75;1704505;83;25502;-64
2022/12/11 12:40:46;;;;;;;27.17;13.62;;;;;;;-3.71;94.23;98840.19;1667793;86;28399;-67
2022/12/11 12:43:48;;;;;;;27.30;14.45;;;;;;;-3.69;94.00;98838.91;1703812;84;25755;-63
2022/12/11 12:46:42;;;;;;;27.35;14.13;;;;;;;-3.66;93.67;98842.37;1667804;86;25585;-64
2022/12/11 12:49:14;;;;;;;29.52;14.90;;;;;;;-3.62;93.37;98832.09;1704348;84;25595;-64
2022/12/11 12:51:43;;;;;;;29.02;13.93;;;;;;;-3.57;93.10;98831.60;1667833;86;25451;-63
2022/12/11 12:54:15;;;;;;;30.85;13.78;;;;;;;-3.53;92.96;98827.92;1704474;84;28108;-64
2022/12/11 12:56:45;;;;;;;30.92;13.38;;;;;;;-3.46;92.93;98831.69;1667674;86;25602;-64
2022/12/11 12:59:23;;;;;;;24.80;12.70;;;;;;;-3.42;92.67;98823.54;1704417;84;25537;-64
2022/12/11 13:01:55;;;;;;;28.27;13.55;;;;;;;-3.36;92.66;98830.98;1667672;86;25681;-61
2022/12/11 13:04:41;;;;;;;24.98;13.53;;;;;;;-3.30;92.60;98826.80;1704408;84;25505;-62
2022/12/11 13:07:25;;;;;;;26.07;12.75;;;;;;;-3.27;92.43;98822.83;1667772;86;27396;-63
2022/12/11 13:10:02;;;;;;;29.63;14.40;;;;;;;-3.21;92.14;98813.89;1667598;86;25678;-63
2022/12/11 13:12:34;;;;;;;26.68;13.48;;;;;;;-3.20;91.90;98808.89;1667363;86;25463;-63
2022/12/11 13:15:01;;;;;;;28.92;13.58;;;;;;;-3.17;91.68;98808.89;1734208;80;25666;-63
2022/12/11 13:17:38;;;;;;;26.23;13.90;;;;;;;-3.18;91.61;98802.81;1782653;80;25437;-62
2022/12/11 13:20:16;;;;;;;24.98;13.48;;;;;;;-3.15;91.49;98805.45;1780097;80;27552;-62
2022/12/11 13:23:09;;;;;;;28.27;14.13;;;;;;;-3.15;91.39;98814.72;1782619;79;25559;-61
2022/12/11 13:25:56;;;;;;;27.30;13.10;;;;;;;-3.15;91.14;98812.89;1760575;80;25655;-63
2022/12/11 13:28:33;;;;;;;26.90;13.60;;;;;;;-3.17;91.02;98804.39;1782579;79;25809;-62
2022/12/11 13:31:17;;;;;;;23.73;13.25;;;;;;;-3.18;90.87;98813.39;1760576;80;25596;-63
2022/12/11 13:33:52;;;;;;;25.48;13.88;;;;;;;-3.16;91.06;98813.14;1777603;80;27534;-63
2022/12/11 13:36:30;;;;;;;28.40;13.62;;;;;;;-3.14;91.25;98808.39;1772773;80;25842;-65
2022/12/11 13:39:21;;;;;;;29.32;15.13;;;;;;;-3.10;91.31;98822.18;1774158;80;25397;-62
2022/12/11 13:41:52;;;;;;;34.18;17.12;;;;;;;-3.08;91.26;98820.07;1773660;80;25839;-64
2022/12/11 13:44:37;;;;;;;30.70;16.05;;;;;;;-3.09;91.17;98818.46;1772372;80;25365;-63
2022/12/11 13:47:09;;;;;;;33.15;14.98;;;;;;;-3.08;91.13;98819.25;1772940;80;27491;-64
2022/12/11 13:49:40;;;;;;;34.05;16.62;;;;;;;-3.05;91.29;98824.04;1772400;80;25626;-63
2022/12/11 13:52:20;;;;;;;29.75;16.02;;;;;;;-3.04;91.34;98815.85;1773512;80;25609;-65
2022/12/11 13:54:49;;;;;;;;;;;;;;;-3.02;91.26;98818.24;1774702;80;25586;-63
2022/12/11 13:57:21;;;;;;;28.42;13.95;;;;;;;-3.00;91.19;98814.81;1772004;80;25551;-64
2022/12/11 13:59:52;;;;;;;31.82;14.45;;;;;;;-3.01;91.06;98803.44;1762709;80;28161;-64
2022/12/11 14:02:30;;;;;;;33.75;16.48;;;;;;;-2.98;90.87;98807.94;1772017;80;25430;-62
2022/12/11 14:05:05;;;;;;;30.95;15.40;;;;;;;-2.99;90.77;98799.22;1773069;80;25528;-62
2022/12/11 14:07:39;;;;;;;32.63;15.68;;;;;;;-2.99;90.64;98797.89;1772786;80;25534;-63
2022/12/11 14:10:20;;;;;;;30.10;15.28;;;;;;;-3.01;90.53;98795.50;1772649;79;25450;-64
2022/12/11 14:13:06;;;;;;;29.77;15.00;;;;;;;-3.00;90.39;98798.94;1773074;80;27519;-64
2022/12/11 14:15:35;;;;;;;32.03;15.08;;;;;;;-3.01;90.43;98813.23;1772587;80;25579;-64
2022/12/11 14:18:04;;;;;;;27.67;14.07;;;;;;;-3.02;90.36;98807.66;1773870;80;25591;-64
2022/12/11 14:20:34;;;;;;;27.05;14.13;;;;;;;-3.02;90.33;98806.34;1762236;80;25706;-63
2022/12/11 14:23:15;;;;;;;;;;;;;;;-3.05;90.20;98797.58;1776530;79;25614;-64
2022/12/11 14:25:42;;;;;;;28.98;14.83;;;;;;;-3.04;90.27;98801.30;1771426;80;27556;-63
2022/12/11 14:28:17;;;;;;;24.67;13.85;;;;;;;-3.08;90.07;98796.27;1771134;80;25527;-63
2022/12/11 14:30:53;;;;;;;27.58;14.43;;;;;;;-3.10;89.86;98799.70;1771808;80;25416;-62
2022/12/11 14:33:27;;;;;;;29.40;15.15;;;;;;;-3.15;89.88;98794.38;1772353;80;25599;-63
2022/12/11 14:35:55;;;;;;;30.97;15.55;;;;;;;-3.17;89.93;98789.84;1772704;80;25627;-63
2022/12/11 14:38:34;;;;;;;31.95;15.23;;;;;;;-3.16;90.05;98786.69;1773075;80;27459;-63
2022/12/11 14:41:14;;;;;;;25.40;13.70;;;;;;;-3.18;90.12;98785.62;1771572;80;25432;-63
2022/12/11 14:43:49;;;;;;;23.92;12.98;;;;;;;-3.19;90.09;98794.06;1774600;80;25437;-63
2022/12/11 14:46:27;;;;;;;25.15;13.32;;;;;;;-3.19;90.05;98793.27;1771572;80;25559;-62
2022/12/11 14:49:01;;;;;;;23.80;13.25;;;;;;;-3.20;90.10;98786.41;1777044;79;25426;-62
2022/12/11 14:51:32;;;;;;;25.65;13.28;;;;;;;-3.20;90.10;98781.91;1772669;80;29677;-62
2022/12/11 14:54:00;;;;;;;28.62;13.45;;;;;;;-3.19;90.19;98776.87;1771174;81;25436;-62
2022/12/11 14:56:29;;;;;;;28.55;14.47;;;;;;;-3.21;90.18;98775.55;1771174;80;25370;-63
2022/12/11 14:59:03;;;;;;;26.05;14.50;;;;;;;-3.21;89.98;98779.52;1774570;80;25434;-63
2022/12/11 15:01:34;;;;;;;24.55;13.48;;;;;;;-3.23;90.04;98779.77;1772871;80;25586;-60
2022/12/11 15:04:08;;;;;;;25.80;13.28;;;;;;;-3.24;90.08;98782.13;1774688;80;28101;-63
2022/12/11 15:06:45;;;;;;;24.02;12.63;;;;;;;-3.25;89.97;98785.84;1774730;79;25557;-62
2022/12/11 15:09:35;;;;;;;25.45;13.45;;;;;;;-3.26;89.96;98782.91;1772247;80;25448;-62
2022/12/11 15:12:17;;;;;;;29.50;13.78;;;;;;;-3.26;89.98;98780.27;1773277;80;25995;-62
2022/12/11 15:14:55;;;;;;;28.20;15.70;;;;;;;-3.28;89.98;98776.30;1773259;80;25552;-63
2022/12/11 15:17:24;;;;;;;23.75;12.98;;;;;;;-3.29;90.01;98774.16;1771935;80;28048;-62
2022/12/11 15:20:07;;;;;;;21.73;12.10;;;;;;;-3.30;89.97;98783.66;1771616;80;25523;-62
2022/12/11 15:22:36;;;;;;;24.40;12.15;;;;;;;-3.31;89.86;98792.67;1771083;80;25438;-62
2022/12/11 15:25:05;;;;;;;21.73;12.47;;;;;;;-3.31;89.97;98797.95;1773163;80;25414;-63
2022/12/11 15:27:37;;;;;;;;;;;;;;;-3.32;90.02;98799.81;1775555;79;25578;-60
2022/12/11 15:30:27;;;;;;;26.05;13.08;;;;;;;-3.33;90.00;98802.17;1772258;80;27494;-60
2022/12/11 15:33:15;;;;;;;22.05;11.60;;;;;;;-3.34;89.97;98803.22;1764516;80;25688;-61
2022/12/11 15:35:56;;;;;;;24.90;12.15;;;;;;;-3.34;90.02;98800.57;1772711;79;25591;-61
2022/12/11 15:38:35;;;;;;;23.98;12.65;;;;;;;-3.34;90.06;98807.18;1772456;80;25537;-62
2022/12/11 15:41:04;;;;;;;22.32;12.47;;;;;;;-3.34;90.14;98803.75;1763634;80;26020;-62
2022/12/11 15:43:35;;;;;;;22.40;12.82;;;;;;;-3.35;90.07;98802.14;1772500;80;27465;-62
2022/12/11 15:46:03;;;;;;;23.87;12.33;;;;;;;-3.35;90.06;98790.25;1771853;79;25537;-61
2022/12/11 15:48:31;;;;;;;19.83;11.70;;;;;;;-3.34;90.10;98797.14;1772155;80;25508;-62
2022/12/11 15:50:57;;;;;;;23.20;11.08;;;;;;;-3.37;90.15;98794.49;1772517;80;25462;-61
2022/12/11 15:53:23;;;;;;;20.20;10.93;;;;;;;-3.36;89.86;98799.24;1772532;80;25441;-62
2022/12/11 15:55:51;;;;;;;20.17;10.75;;;;;;;-3.38;89.93;98802.93;1772527;80;27609;-62
2022/12/11 15:58:23;;;;;;;21.07;11.53;;;;;;;-3.37;90.02;98795.81;1771618;80;25451;-62
2022/12/11 16:00:52;;;;;;;22.70;12.55;;;;;;;-3.39;90.06;98790.78;1772988;80;25552;-60
2022/12/11 16:03:22;;;;;;;22.73;12.43;;;;;;;-3.36;90.14;98787.34;1762736;80;25472;-61
2022/12/11 16:05:52;;;;;;;27.42;12.65;;;;;;;-3.34;90.11;98786.56;1772909;79;25395;-62
2022/12/11 16:08:22;;;;;;;25.97;12.78;;;;;;;-3.36;90.12;98772.80;1762474;80;27736;-62
2022/12/11 16:10:53;;;;;;;27.15;13.20;;;;;;;-3.35;90.04;98778.34;1772520;80;25593;-62
2022/12/11 16:13:21;;;;;;;24.05;13.08;;;;;;;-3.35;89.92;98775.70;1771971;80;25427;-61
2022/12/11 16:15:52;;;;;;;24.27;12.78;;;;;;;-3.38;89.93;98771.73;1762965;80;25712;-62
2022/12/11 16:18:22;;;;;;;25.55;13.13;;;;;;;-3.41;89.88;98770.38;1771790;80;25418;-62
2022/12/11 16:20:50;;;;;;;27.10;13.05;;;;;;;-3.41;89.85;98774.87;1772524;80;27463;-62
2022/12/11 16:23:19;;;;;;;29.98;13.80;;;;;;;-3.45;89.80;98770.62;1772109;80;25466;-60
2022/12/11 16:25:49;;;;;;;26.25;14.80;;;;;;;-3.45;89.88;98779.88;1763221;80;25662;-61
2022/12/11 16:28:20;;;;;;;23.27;12.65;;;;;;;-3.47;89.80;98779.34;1773844;80;25600;-62
2022/12/11 16:30:48;;;;;;;30.27;13.80;;;;;;;-3.47;89.87;98779.34;1772447;79;25416;-63
2022/12/11 16:33:16;;;;;;;22.30;12.27;;;;;;;-3.48;89.92;98772.98;1773309;80;27516;-62
2022/12/11 16:35:42;;;;;;;24.82;12.70;;;;;;;-3.50;89.80;98770.59;1772348;79;25651;-65
2022/12/11 16:38:12;;;;;;;28.80;14.10;;;;;;;-3.51;89.79;98763.70;1760451;80;25729;-62
2022/12/11 16:40:39;;;;;;;26.68;12.95;;;;;;;-3.51;89.78;98768.20;1773572;79;25426;-62
2022/12/11 16:43:07;;;;;;;28.98;13.80;;;;;;;-3.52;89.79;98773.20;1771911;79;25427;-63
2022/12/11 16:45:33;;;;;;;24.07;12.90;;;;;;;-3.55;89.73;98770.55;1771683;80;27459;-63
2022/12/11 16:48:04;;;;;;;26.95;14.35;;;;;;;-3.54;89.78;98774.80;1772238;80;25840;-63
2022/12/11 16:50:31;;;;;;;26.12;13.93;;;;;;;-3.55;89.75;98771.09;1773165;80;25393;-62
2022/12/11 16:52:57;;;;;;;28.00;14.87;;;;;;;-3.59;89.78;98773.45;1771809;80;25677;-62
2022/12/11 16:55:24;;;;;;;28.05;15.60;;;;;;;-3.58;89.88;98778.45;1771480;80;25681;-62
2022/12/11 16:57:50;;;;;;;28.07;15.40;;;;;;;-3.59;89.90;98787.45;1772442;80;27443;-62
2022/12/11 17:00:18;;;;;;;25.95;13.72;;;;;;;-3.57;90.01;98787.98;1771854;79;25633;-62
2022/12/11 17:02:44;;;;;;;28.50;16.10;;;;;;;-3.57;89.95;98789.84;1772093;80;25690;-62
2022/12/11 17:05:11;;;;;;;34.40;15.48;;;;;;;-3.57;89.96;98794.59;1771163;80;25996;-63
2022/12/11 17:07:37;;;;;;;34.50;17.90;;;;;;;-3.55;89.98;98789.59;1772308;79;25583;-62
2022/12/11 17:10:05;;;;;;;30.02;15.25;;;;;;;-3.55;90.07;98785.09;1771604;80;27464;-62
2022/12/11 17:12:31;;;;;;;29.63;15.13;;;;;;;-3.54;90.05;98785.88;1762590;80;25556;-62
2022/12/11 17:14:58;;;;;;;31.52;16.02;;;;;;;-3.53;89.98;98794.88;1772383;80;25155;-61
2022/12/11 17:17:26;;;;;;;27.02;13.95;;;;;;;-3.55;89.94;98790.38;1772822;80;25521;-63
2022/12/11 17:19:52;;;;;;;31.43;16.03;;;;;;;-3.53;89.95;98795.42;1772306;80;32483;-63
2022/12/11 17:22:19;;;;;;;27.40;14.53;;;;;;;-3.53;90.07;98792.24;1771833;79;27478;-62
2022/12/11 17:24:46;;;;;;;27.45;14.25;;;;;;;-3.51;90.28;98784.84;1772066;80;25794;-63
2022/12/11 17:27:13;;;;;;;25.57;13.65;;;;;;;-3.47;90.26;98774.59;1772224;80;25427;-63
2022/12/11 17:29:40;;;;;;;23.42;12.53;;;;;;;-3.47;89.96;98771.41;1773780;79;25533;-63
2022/12/11 17:32:07;;;;;;;25.37;13.00;;;;;;;-3.47;89.92;98772.73;1772422;80;25460;-62
2022/12/11 17:34:33;;;;;;;22.17;12.23;;;;;;;-3.49;89.87;98769.55;1763467;80;29693;-62
2022/12/11 17:37:00;;;;;;;21.95;12.13;;;;;;;-3.50;89.70;98778.52;1778880;80;25534;-63
2022/12/11 17:39:26;;;;;;;24.27;12.58;;;;;;;-3.53;89.58;98776.38;1778876;79;25580;-62
2022/12/11 17:41:54;;;;;;;23.52;12.18;;;;;;;-3.56;89.48;98772.91;1768136;80;25523;-63
2022/12/11 17:44:20;;;;;;;26.73;13.65;;;;;;;-3.59;89.49;98776.88;1778887;80;25426;-63
2022/12/11 17:46:46;;;;;;;28.27;14.20;;;;;;;-3.59;89.52;98775.55;1778987;80;28313;-63
2022/12/11 17:49:13;;;;;;;24.02;13.28;;;;;;;-3.60;89.63;98774.48;1778782;80;27334;-62